Página principal
METAR-TAF:

METAR-TAF

Aeroportos :

Ahvaz, Irão

latitude: 31-20N, longitude: 048-40E, altura: 20 m

Observação actual do tempo

O boletim foi feito há 30 minutos, às 23:00 UTC
Vento 2 kt de nordeste
Temperatura 29°C
Humidade 23%
Pressão 1006 hPa
Visibilidade 10 km ou mais
sem nuvens abaixo de 1500 metros e sem cumulonimbus

METAR: OIAW 232300Z 05002KT CAVOK 29/06 Q1006

Hora: 03:00 (23:30 UTC)

Previsão

O boletim foi feito há 6 horas e 0 minutos, às 17:30 UTC
Previsão válida de 23 às 18 UTC a 24 às 24 UTC
Vento 8 kt de oes-noroeste
Visibilidade: 7000 m
Temporariamente
de 24 às 06 UTC a 24 às 13 UTC
Vento 10 kt de oes-noroeste com rajadas de 21 kt
Visibilidade: 3000 m
areia

TAF: OIAW 231730Z 2318/2424 30004MPS 7000 NSC TEMPO 2406/2413 30005G11MPS 3000 SA

Observações e previsões do tempo de mais de 4000 aeroportos (mensagens METAR e TAF).

As estações disponíveis são os pontos amarelos e vermelhos sobre o mapa.

Mova o rato sobre o mapa para ver o nome da estação.

Depois clique no ponto para visualizar as observações e previsões meteorológicas.

Para alterar o mapa : clique nos botões verdes com uma cruz preta para aumentar o zoom; no botão verde com uma pitada de zoom; ou nas setas verdes para mapas adjacentes.


METAR-TAF: